METAR Data
IDs: Format: Raw Decoded Include TAF

Data at: 1309 UTC 22 Apr 2021

ETHA 221220Z 36009KT 9999 SCT020 BKN080 10/04 Q1020 BLU BLU